createdAt,value
2023-03-27T00:02:08.576Z,5.80
2023-03-27T00:04:35.394Z,5.70
2023-03-27T00:07:03.376Z,5.70
2023-03-27T00:09:32.272Z,5.60
2023-03-27T00:12:00.685Z,5.60
2023-03-27T00:14:27.602Z,5.60
2023-03-27T00:16:54.192Z,5.50
2023-03-27T00:19:21.702Z,5.50
2023-03-27T00:21:48.693Z,5.60
2023-03-27T00:24:15.891Z,5.40
2023-03-27T00:26:43.117Z,5.50
2023-03-27T00:29:10.456Z,5.50
2023-03-27T00:31:37.043Z,5.40
2023-03-27T00:34:03.641Z,5.40
2023-03-27T00:36:30.321Z,5.50
2023-03-27T00:38:57.026Z,5.40
2023-03-27T00:41:23.733Z,5.50
2023-03-27T00:43:52.639Z,5.40
2023-03-27T00:46:21.235Z,5.40
2023-03-27T00:48:49.651Z,5.30
2023-03-27T00:51:16.725Z,5.30
2023-03-27T00:53:43.919Z,5.30
2023-03-27T00:56:10.735Z,5.20
2023-03-27T00:58:41.231Z,5.30
2023-03-27T01:01:09.916Z,5.20
2023-03-27T01:03:36.960Z,5.20
2023-03-27T01:06:04.071Z,5.20
2023-03-27T01:08:33.655Z,5.20
2023-03-27T01:11:10.994Z,5.10
2023-03-27T01:13:46.447Z,5.10
2023-03-27T01:16:35.351Z,5.10
2023-03-27T01:19:01.912Z,5.10
2023-03-27T01:21:34.562Z,5.10
2023-03-27T01:24:20.236Z,5.00
2023-03-27T01:26:59.126Z,5.00
2023-03-27T01:29:28.992Z,5.00
2023-03-27T01:32:01.507Z,5.10
2023-03-27T01:34:28.049Z,5.10
2023-03-27T01:37:07.112Z,5.20
2023-03-27T01:40:05.131Z,5.20
2023-03-27T01:42:35.510Z,5.30
2023-03-27T01:45:17.065Z,5.40
2023-03-27T01:47:58.351Z,5.30
2023-03-27T01:50:39.149Z,5.30
2023-03-27T01:53:09.020Z,5.30
2023-03-27T01:55:39.532Z,5.20
2023-03-27T01:58:18.048Z,5.20
2023-03-27T02:00:52.070Z,5.30
2023-03-27T02:03:41.657Z,5.30
2023-03-27T02:06:08.636Z,5.30
2023-03-27T02:08:50.541Z,5.30
2023-03-27T02:11:17.580Z,5.20
2023-03-27T02:13:44.146Z,5.20
2023-03-27T02:16:13.584Z,5.20
2023-03-27T02:18:47.567Z,5.20
2023-03-27T02:21:14.638Z,5.20
2023-03-27T02:23:41.818Z,5.10
2023-03-27T02:26:11.028Z,5.00
2023-03-27T02:28:46.671Z,5.00
2023-03-27T02:31:32.130Z,4.90
2023-03-27T02:34:13.212Z,4.80
2023-03-27T02:37:06.302Z,4.70
2023-03-27T02:39:42.248Z,4.60
2023-03-27T02:42:14.705Z,4.50
2023-03-27T02:44:47.527Z,4.40
2023-03-27T02:47:19.978Z,4.50
2023-03-27T02:49:51.196Z,4.40
2023-03-27T02:52:26.032Z,4.40
2023-03-27T02:54:56.039Z,4.30
2023-03-27T02:57:26.474Z,4.40
2023-03-27T02:59:56.006Z,4.40
2023-03-27T03:02:24.764Z,4.40
2023-03-27T03:04:57.138Z,4.50
2023-03-27T03:07:26.898Z,4.40
2023-03-27T03:09:54.131Z,4.40
2023-03-27T03:12:21.434Z,4.40
2023-03-27T03:14:48.133Z,4.40
2023-03-27T03:17:15.251Z,4.40
2023-03-27T03:19:41.850Z,4.30
2023-03-27T03:22:08.449Z,4.20
2023-03-27T03:24:41.809Z,4.20
2023-03-27T03:27:08.647Z,4.20
2023-03-27T03:29:37.993Z,4.10
2023-03-27T03:32:06.277Z,4.10
2023-03-27T03:34:35.589Z,4.10
2023-03-27T03:37:02.289Z,4.00
2023-03-27T03:39:29.083Z,3.90
2023-03-27T03:41:55.959Z,3.90
2023-03-27T03:44:22.593Z,3.80
2023-03-27T03:46:49.228Z,3.80
2023-03-27T03:49:15.966Z,3.80
2023-03-27T03:51:42.623Z,3.70
2023-03-27T03:54:09.371Z,3.70
2023-03-27T03:56:37.300Z,3.60
2023-03-27T03:59:03.993Z,3.60
2023-03-27T04:01:30.583Z,3.60
2023-03-27T04:03:57.341Z,3.60
2023-03-27T04:06:25.521Z,3.60
2023-03-27T04:08:53.076Z,3.50
2023-03-27T04:11:19.810Z,3.50
2023-03-27T04:13:46.436Z,3.50
2023-03-27T04:16:13.203Z,3.50
2023-03-27T04:18:41.213Z,3.40
2023-03-27T04:21:14.224Z,3.40
2023-03-27T04:23:42.018Z,3.40
2023-03-27T04:26:08.613Z,3.50
2023-03-27T04:28:35.261Z,3.40
2023-03-27T04:31:06.209Z,3.40
2023-03-27T04:33:34.191Z,3.30
2023-03-27T04:36:06.598Z,3.40
2023-03-27T04:38:36.590Z,3.30
2023-03-27T04:41:03.740Z,3.30
2023-03-27T04:43:30.699Z,3.30
2023-03-27T04:45:57.385Z,3.20
2023-03-27T04:48:24.036Z,3.20
2023-03-27T04:50:50.696Z,3.20
2023-03-27T04:53:18.181Z,3.10
2023-03-27T04:55:45.824Z,3.10
2023-03-27T04:58:13.050Z,3.10
2023-03-27T05:00:40.138Z,3.10
2023-03-27T05:03:06.893Z,3.10
2023-03-27T05:05:34.677Z,3.10
2023-03-27T05:08:01.573Z,3.00
2023-03-27T05:10:28.155Z,3.00
2023-03-27T05:12:57.088Z,3.00
2023-03-27T05:15:24.633Z,3.00
2023-03-27T05:17:54.826Z,3.00
2023-03-27T05:20:22.210Z,3.00
2023-03-27T05:22:49.138Z,3.00
2023-03-27T05:25:15.955Z,3.00
2023-03-27T05:27:46.634Z,3.00
2023-03-27T05:30:16.602Z,3.00
2023-03-27T05:32:48.672Z,3.00
2023-03-27T05:35:20.126Z,3.00
2023-03-27T05:37:49.841Z,3.00
2023-03-27T05:40:17.515Z,3.00
2023-03-27T05:42:45.272Z,3.00
2023-03-27T05:45:12.874Z,3.10
2023-03-27T05:47:43.905Z,3.10
2023-03-27T05:50:10.661Z,3.20
2023-03-27T05:52:37.543Z,3.30
2023-03-27T05:55:05.042Z,3.40
2023-03-27T05:57:31.706Z,3.40
2023-03-27T05:59:58.296Z,3.50
2023-03-27T06:02:25.313Z,3.50
2023-03-27T06:04:52.186Z,3.50
2023-03-27T06:07:18.875Z,3.60
2023-03-27T06:09:45.612Z,3.60
2023-03-27T06:12:12.226Z,3.60
2023-03-27T06:14:38.799Z,3.70
2023-03-27T06:17:06.402Z,3.80
2023-03-27T06:19:32.962Z,3.90
2023-03-27T06:21:59.526Z,4.10
2023-03-27T06:24:26.303Z,4.20
2023-03-27T06:26:52.958Z,4.30
2023-03-27T06:29:19.572Z,4.70
2023-03-27T06:31:46.163Z,4.90
2023-03-27T06:34:14.953Z,5.00
2023-03-27T06:36:41.587Z,5.00
2023-03-27T06:39:08.329Z,5.10
2023-03-27T06:41:35.688Z,5.10
2023-03-27T06:44:02.306Z,5.20
2023-03-27T06:46:42.732Z,5.30
2023-03-27T06:49:11.927Z,5.30
2023-03-27T06:51:38.557Z,5.40
2023-03-27T06:54:05.218Z,5.40
2023-03-27T06:56:31.870Z,5.40
2023-03-27T06:58:58.487Z,5.40
2023-03-27T07:01:25.147Z,5.50
2023-03-27T07:03:51.752Z,5.50
2023-03-27T07:06:19.361Z,5.50
2023-03-27T07:08:47.715Z,5.60
2023-03-27T07:11:15.692Z,5.60
2023-03-27T07:13:42.564Z,5.80
2023-03-27T07:16:12.005Z,5.90
2023-03-27T07:18:38.890Z,6.00
2023-03-27T07:21:07.674Z,6.10
2023-03-27T07:23:34.297Z,6.20
2023-03-27T07:26:01.777Z,6.20
2023-03-27T07:28:28.373Z,6.30
2023-03-27T07:30:55.313Z,6.50
2023-03-27T07:33:22.303Z,6.50
2023-03-27T07:35:49.158Z,6.40
2023-03-27T07:38:16.585Z,6.50
2023-03-27T07:40:44.131Z,6.50
2023-03-27T07:43:10.999Z,6.50
2023-03-27T07:45:37.669Z,6.50
2023-03-27T07:48:22.902Z,6.70
2023-03-27T07:50:49.476Z,6.80
2023-03-27T07:53:33.631Z,7.10
2023-03-27T07:56:01.414Z,7.30
2023-03-27T07:58:28.276Z,7.40
2023-03-27T08:00:58.261Z,7.40
2023-03-27T08:03:26.198Z,7.60
2023-03-27T08:05:54.174Z,7.80
2023-03-27T08:08:20.941Z,7.60
2023-03-27T08:10:47.784Z,7.50
2023-03-27T08:13:14.458Z,7.60
2023-03-27T08:15:41.268Z,7.70
2023-03-27T08:18:08.981Z,8.00
2023-03-27T08:20:35.640Z,8.10
2023-03-27T08:23:02.697Z,8.40
2023-03-27T08:25:32.911Z,8.20
2023-03-27T08:28:00.064Z,8.00
2023-03-27T08:30:26.734Z,8.10
2023-03-27T08:32:53.477Z,8.60
2023-03-27T08:35:20.301Z,9.00
2023-03-27T08:37:47.139Z,9.30
2023-03-27T08:40:18.773Z,9.60
2023-03-27T08:42:46.370Z,9.60
2023-03-27T08:45:22.413Z,9.40
2023-03-27T08:48:07.312Z,9.20
2023-03-27T08:50:33.987Z,8.80
2023-03-27T08:53:01.470Z,8.90
2023-03-27T08:55:37.256Z,9.50
2023-03-27T08:58:04.001Z,10.40
2023-03-27T09:00:35.356Z,11.30
2023-03-27T09:03:10.686Z,11.80
2023-03-27T09:05:40.545Z,11.40
2023-03-27T09:08:21.161Z,10.90
2023-03-27T09:10:51.845Z,11.00
2023-03-27T09:13:18.483Z,11.00
2023-03-27T09:16:06.047Z,10.80
2023-03-27T09:18:40.488Z,10.60
2023-03-27T09:21:27.338Z,10.30
2023-03-27T09:23:55.264Z,10.20
2023-03-27T09:26:34.160Z,9.60
2023-03-27T09:29:02.026Z,9.50
2023-03-27T09:31:29.307Z,10.70
2023-03-27T09:33:57.857Z,11.20
2023-03-27T09:36:27.342Z,10.80
2023-03-27T09:38:58.557Z,10.80
2023-03-27T09:41:28.711Z,11.50
2023-03-27T09:44:03.567Z,11.80
2023-03-27T09:46:31.605Z,11.90
2023-03-27T09:49:00.442Z,11.20
2023-03-27T09:51:39.455Z,10.60
2023-03-27T09:54:07.205Z,10.80
2023-03-27T09:56:41.475Z,13.00
2023-03-27T09:59:13.275Z,14.80
2023-03-27T10:01:46.790Z,15.60
2023-03-27T10:04:16.201Z,14.10
2023-03-27T10:06:51.354Z,12.80
2023-03-27T10:09:26.448Z,12.20
2023-03-27T10:12:05.430Z,14.40
2023-03-27T10:14:34.643Z,16.10
2023-03-27T10:17:02.220Z,17.80
2023-03-27T10:19:39.891Z,18.50
2023-03-27T10:22:14.238Z,17.30
2023-03-27T10:24:44.397Z,17.40
2023-03-27T10:27:17.079Z,18.80
2023-03-27T10:29:43.766Z,19.60
2023-03-27T10:32:11.185Z,20.70
2023-03-27T10:34:37.935Z,21.80
2023-03-27T10:37:26.533Z,22.50
2023-03-27T10:39:54.991Z,20.10
2023-03-27T10:42:22.805Z,17.10
2023-03-27T10:44:49.608Z,14.80
2023-03-27T10:47:20.563Z,14.10
2023-03-27T10:49:52.062Z,16.10
2023-03-27T10:52:23.728Z,19.00
2023-03-27T10:55:17.609Z,22.00
2023-03-27T10:57:45.862Z,23.80
2023-03-27T11:00:19.941Z,25.60
2023-03-27T11:02:49.875Z,27.00
2023-03-27T11:05:18.995Z,28.20
2023-03-27T11:08:12.342Z,28.90
2023-03-27T11:10:42.056Z,28.90
2023-03-27T11:13:11.161Z,25.20
2023-03-27T11:15:43.657Z,24.70
2023-03-27T11:18:17.286Z,23.60
2023-03-27T11:20:46.795Z,22.80
2023-03-27T11:23:16.673Z,22.20
2023-03-27T11:25:46.825Z,22.90
2023-03-27T11:28:17.404Z,22.20
2023-03-27T11:30:44.437Z,20.40
2023-03-27T11:33:33.023Z,18.50
2023-03-27T11:36:11.768Z,16.80
2023-03-27T11:38:41.124Z,15.10
2023-03-27T11:41:12.295Z,14.70
2023-03-27T11:43:40.750Z,18.70
2023-03-27T11:46:07.949Z,21.50
2023-03-27T11:48:53.522Z,19.90
2023-03-27T11:51:38.542Z,17.90
2023-03-27T11:54:05.389Z,16.20
2023-03-27T11:56:38.711Z,14.80
2023-03-27T11:59:11.003Z,13.60
2023-03-27T12:01:37.591Z,12.80
2023-03-27T12:04:27.637Z,12.30
2023-03-27T12:07:09.792Z,12.10
2023-03-27T12:09:41.616Z,13.10
2023-03-27T12:12:26.577Z,14.50
2023-03-27T12:14:53.401Z,15.50
2023-03-27T12:17:52.643Z,16.10
2023-03-27T12:20:28.691Z,16.70
2023-03-27T12:22:58.371Z,17.60
2023-03-27T12:25:27.821Z,17.80
2023-03-27T12:28:23.094Z,18.10
2023-03-27T12:30:50.201Z,17.50
2023-03-27T12:33:28.742Z,16.80
2023-03-27T12:35:57.580Z,16.80
2023-03-27T12:38:24.220Z,16.80
2023-03-27T12:41:01.211Z,16.20
2023-03-27T12:43:29.464Z,15.80
2023-03-27T12:46:19.465Z,14.90
2023-03-27T12:49:06.493Z,14.20
2023-03-27T12:51:47.494Z,13.20
2023-03-27T12:54:22.062Z,12.40
2023-03-27T12:57:08.089Z,11.60
2023-03-27T12:59:34.808Z,11.10
2023-03-27T13:02:04.712Z,10.70
2023-03-27T13:04:31.405Z,10.20
2023-03-27T13:06:58.036Z,10.70
2023-03-27T13:09:27.482Z,12.00
2023-03-27T13:11:54.104Z,13.20
2023-03-27T13:14:29.958Z,13.60
2023-03-27T13:17:09.538Z,12.90
2023-03-27T13:19:42.156Z,12.20
2023-03-27T13:22:11.946Z,11.40
2023-03-27T13:24:54.332Z,10.80
2023-03-27T13:27:27.121Z,10.50
2023-03-27T13:29:54.063Z,11.40
2023-03-27T13:32:30.966Z,12.20
2023-03-27T13:35:21.099Z,12.70
2023-03-27T13:37:50.948Z,12.30
2023-03-27T13:40:24.304Z,11.80
2023-03-27T13:42:52.428Z,11.10
2023-03-27T13:45:19.019Z,10.40
2023-03-27T13:47:45.725Z,10.00
2023-03-27T13:50:23.485Z,9.40
2023-03-27T13:53:16.433Z,9.20
2023-03-27T13:55:49.212Z,9.50
2023-03-27T13:58:34.696Z,9.70
2023-03-27T14:01:25.197Z,9.90
2023-03-27T14:04:10.939Z,10.30
2023-03-27T14:06:56.568Z,11.30
2023-03-27T14:09:31.985Z,11.90
2023-03-27T14:12:01.469Z,12.40
2023-03-27T14:14:37.397Z,12.70
2023-03-27T14:17:15.083Z,12.80
2023-03-27T14:20:00.840Z,12.80
2023-03-27T14:22:50.716Z,12.10
2023-03-27T14:25:26.163Z,11.20
2023-03-27T14:27:54.129Z,11.40
2023-03-27T14:30:22.295Z,11.80
2023-03-27T14:32:49.890Z,12.30
2023-03-27T14:35:35.965Z,12.60
2023-03-27T14:38:23.356Z,12.80
2023-03-27T14:40:52.399Z,13.00
2023-03-27T14:43:21.057Z,13.10
2023-03-27T14:45:49.657Z,13.00
2023-03-27T14:48:31.461Z,12.90
2023-03-27T14:51:01.907Z,12.60
2023-03-27T14:53:31.301Z,12.60
2023-03-27T14:56:00.125Z,12.70
2023-03-27T14:58:27.396Z,12.80
2023-03-27T15:00:57.836Z,12.70
2023-03-27T15:03:26.137Z,12.70
2023-03-27T15:05:59.013Z,12.40
2023-03-27T15:08:25.918Z,12.30
2023-03-27T15:10:53.760Z,12.10
2023-03-27T15:13:23.359Z,11.50
2023-03-27T15:15:50.445Z,11.40
2023-03-27T15:18:24.575Z,10.90
2023-03-27T15:20:52.511Z,10.90
2023-03-27T15:23:45.415Z,10.90
2023-03-27T15:26:24.297Z,10.70
2023-03-27T15:29:01.167Z,10.70
2023-03-27T15:31:29.574Z,10.70
2023-03-27T15:34:06.149Z,10.40
2023-03-27T15:36:34.279Z,10.10
2023-03-27T15:39:01.423Z,10.00
2023-03-27T15:41:28.019Z,10.00
2023-03-27T15:44:16.776Z,9.70
2023-03-27T15:46:48.660Z,9.60
2023-03-27T15:49:19.474Z,9.50
2023-03-27T15:51:46.289Z,9.40
2023-03-27T15:54:30.266Z,9.30
2023-03-27T15:57:09.354Z,9.30
2023-03-27T15:59:52.254Z,9.20
2023-03-27T16:02:20.877Z,9.10
2023-03-27T16:04:48.301Z,9.00
2023-03-27T16:07:20.934Z,9.00
2023-03-27T16:09:54.025Z,8.60
2023-03-27T16:12:24.253Z,8.20
2023-03-27T16:14:53.489Z,8.00
2023-03-27T16:17:34.398Z,8.00
2023-03-27T16:20:01.496Z,7.80
2023-03-27T16:22:30.491Z,7.90
2023-03-27T16:24:57.663Z,8.10
2023-03-27T16:27:30.501Z,8.30
2023-03-27T16:29:57.173Z,8.20
2023-03-27T16:32:24.094Z,8.10
2023-03-27T16:34:53.512Z,7.80
2023-03-27T16:37:22.708Z,7.60
2023-03-27T16:39:49.901Z,7.60
2023-03-27T16:42:21.728Z,7.40
2023-03-27T16:44:50.307Z,7.30
2023-03-27T16:47:17.672Z,7.20
2023-03-27T16:49:44.333Z,7.20
2023-03-27T16:52:10.989Z,7.10
2023-03-27T16:54:37.654Z,7.00
2023-03-27T16:57:04.291Z,7.00
2023-03-27T16:59:30.936Z,7.00
2023-03-27T17:01:57.580Z,7.00
2023-03-27T17:04:25.306Z,7.00
2023-03-27T17:06:52.099Z,6.90
2023-03-27T17:09:18.741Z,6.80
2023-03-27T17:11:45.551Z,6.80
2023-03-27T17:14:12.287Z,6.70
2023-03-27T17:16:39.740Z,6.50
2023-03-27T17:19:06.715Z,6.50
2023-03-27T17:21:33.431Z,6.50
2023-03-27T17:24:01.017Z,6.40
2023-03-27T17:26:29.033Z,6.20
2023-03-27T17:28:55.980Z,6.20
2023-03-27T17:31:22.638Z,6.20
2023-03-27T17:33:49.270Z,6.20
2023-03-27T17:36:21.647Z,6.10
2023-03-27T17:38:53.489Z,6.10
2023-03-27T17:41:20.624Z,6.00
2023-03-27T17:43:47.437Z,6.00
2023-03-27T17:46:14.389Z,5.90
2023-03-27T17:48:41.898Z,5.90
2023-03-27T17:51:10.057Z,5.80
2023-03-27T17:53:37.854Z,5.80
2023-03-27T17:56:04.611Z,5.60
2023-03-27T17:58:31.335Z,5.60
2023-03-27T18:00:57.935Z,5.50
2023-03-27T18:03:24.639Z,5.40
2023-03-27T18:05:52.109Z,5.30
2023-03-27T18:08:19.919Z,5.30
2023-03-27T18:10:48.618Z,5.30
2023-03-27T18:13:16.048Z,5.30
2023-03-27T18:15:42.742Z,5.30
2023-03-27T18:18:09.450Z,6.00
2023-03-27T18:20:36.244Z,5.30
2023-03-27T18:23:02.927Z,5.20
2023-03-27T18:25:30.316Z,5.30
2023-03-27T18:27:56.925Z,5.30
2023-03-27T18:30:23.843Z,5.30
2023-03-27T18:32:50.737Z,5.20
2023-03-27T18:35:18.716Z,5.20
2023-03-27T18:37:46.372Z,5.10
2023-03-27T18:40:15.098Z,5.00
2023-03-27T18:42:44.942Z,5.00
2023-03-27T18:45:12.642Z,4.90
2023-03-27T18:47:39.426Z,4.80
2023-03-27T18:50:06.662Z,4.70
2023-03-27T18:52:33.282Z,4.70
2023-03-27T18:54:59.883Z,4.70
2023-03-27T18:57:26.520Z,4.70
2023-03-27T18:59:55.004Z,4.60
2023-03-27T19:02:22.092Z,4.60
2023-03-27T19:04:48.850Z,4.60
2023-03-27T19:07:16.544Z,4.50
2023-03-27T19:09:43.223Z,4.40
2023-03-27T19:12:10.552Z,4.40
2023-03-27T19:14:37.200Z,4.40
2023-03-27T19:17:04.519Z,4.40
2023-03-27T19:19:31.863Z,4.30
2023-03-27T19:21:58.689Z,4.30
2023-03-27T19:24:25.583Z,4.20
2023-03-27T19:26:52.812Z,4.30
2023-03-27T19:29:20.172Z,4.30
2023-03-27T19:31:46.798Z,4.20
2023-03-27T19:34:13.574Z,4.20
2023-03-27T19:36:40.420Z,4.10
2023-03-27T19:39:07.141Z,4.20
2023-03-27T19:41:33.842Z,4.10
2023-03-27T19:44:00.750Z,4.00
2023-03-27T19:46:28.440Z,3.90
2023-03-27T19:48:55.797Z,4.00
2023-03-27T19:51:22.843Z,4.00
2023-03-27T19:53:49.490Z,3.90
2023-03-27T19:56:16.218Z,3.90
2023-03-27T19:58:42.803Z,4.00
2023-03-27T20:01:09.691Z,4.00
2023-03-27T20:03:38.385Z,4.00
2023-03-27T20:06:11.927Z,4.10
2023-03-27T20:08:40.963Z,4.00
2023-03-27T20:11:07.773Z,4.00
2023-03-27T20:13:42.485Z,4.10
2023-03-27T20:16:16.368Z,3.90
2023-03-27T20:18:43.488Z,3.80
2023-03-27T20:21:13.443Z,3.80
2023-03-27T20:23:41.934Z,3.90
2023-03-27T20:26:09.248Z,3.90
2023-03-27T20:28:36.100Z,3.80
2023-03-27T20:31:04.226Z,3.80
2023-03-27T20:33:31.050Z,3.90
2023-03-27T20:35:57.914Z,3.80
2023-03-27T20:38:28.697Z,3.80
2023-03-27T20:40:56.320Z,3.80
2023-03-27T20:43:23.071Z,3.80
2023-03-27T20:45:54.786Z,3.80
2023-03-27T20:48:21.943Z,3.80
2023-03-27T20:50:51.253Z,3.80
2023-03-27T20:53:19.003Z,3.70
2023-03-27T20:58:13.299Z,3.90
2023-03-27T21:00:40.711Z,3.90
2023-03-27T21:03:07.428Z,3.90
2023-03-27T21:05:34.620Z,3.90
2023-03-27T21:08:01.326Z,3.90
2023-03-27T21:10:27.905Z,3.90
2023-03-27T21:12:56.530Z,3.90
2023-03-27T21:15:23.315Z,3.90
2023-03-27T21:17:50.005Z,3.90
2023-03-27T21:20:16.802Z,3.90
2023-03-27T21:22:43.495Z,3.90
2023-03-27T21:25:10.087Z,3.90
2023-03-27T21:27:36.740Z,3.90
2023-03-27T21:30:04.017Z,3.70
2023-03-27T21:32:30.683Z,3.70
2023-03-27T21:34:57.281Z,3.70
2023-03-27T21:37:23.904Z,3.60
2023-03-27T21:39:50.684Z,3.60
2023-03-27T21:42:21.202Z,3.60
2023-03-27T21:44:52.515Z,3.60
2023-03-27T21:47:21.884Z,3.60
2023-03-27T21:49:48.514Z,3.60
2023-03-27T21:52:15.204Z,3.60
2023-03-27T21:54:47.420Z,3.60
2023-03-27T21:57:25.054Z,3.50
2023-03-27T21:59:52.767Z,3.50
2023-03-27T22:02:19.432Z,3.50
2023-03-27T22:04:46.258Z,3.40
2023-03-27T22:07:13.065Z,3.50
2023-03-27T22:09:39.677Z,3.50
2023-03-27T22:12:06.452Z,3.60
2023-03-27T22:14:33.116Z,3.60
2023-03-27T22:16:59.785Z,3.70
2023-03-27T22:19:26.390Z,3.70
2023-03-27T22:21:53.025Z,3.80
2023-03-27T22:24:19.754Z,3.80
2023-03-27T22:26:46.320Z,3.80
2023-03-27T22:29:12.944Z,3.70
2023-03-27T22:31:39.632Z,3.80
2023-03-27T22:34:06.305Z,3.80
2023-03-27T22:36:33.436Z,3.90
2023-03-27T22:39:00.521Z,3.90
2023-03-27T22:41:27.246Z,4.00
2023-03-27T22:43:54.149Z,4.10
2023-03-27T22:46:21.719Z,4.10
2023-03-27T22:48:52.894Z,4.00
2023-03-27T22:51:19.465Z,4.00
2023-03-27T22:53:46.407Z,4.00
2023-03-27T22:56:13.390Z,4.10
2023-03-27T22:58:39.987Z,4.00
2023-03-27T23:01:06.861Z,3.90
2023-03-27T23:03:33.542Z,4.00
2023-03-27T23:06:00.375Z,4.00
2023-03-27T23:08:27.370Z,4.10
2023-03-27T23:10:55.255Z,4.10
2023-03-27T23:13:22.126Z,4.20
2023-03-27T23:15:49.659Z,4.10
2023-03-27T23:18:16.313Z,4.00
2023-03-27T23:20:42.948Z,4.00
2023-03-27T23:23:09.536Z,4.00
2023-03-27T23:25:36.177Z,4.10
2023-03-27T23:28:02.777Z,4.00
2023-03-27T23:30:29.413Z,3.90
2023-03-27T23:32:56.088Z,3.90
2023-03-27T23:35:22.710Z,3.90
2023-03-27T23:37:49.282Z,4.00
2023-03-27T23:40:16.148Z,3.90
2023-03-27T23:42:42.787Z,4.00
2023-03-27T23:45:09.633Z,4.00
2023-03-27T23:47:38.458Z,3.90
2023-03-27T23:50:05.290Z,3.90
2023-03-27T23:52:31.840Z,3.90
2023-03-27T23:54:58.450Z,3.90
2023-03-27T23:57:25.516Z,4.10
2023-03-27T23:59:52.139Z,3.90
